Time;durP1;ratioP1;P1;durP2;ratioP2;P2;SDS_P1;SDS_P2;PMS_P1;PMS_P2;Temp;Humidity;BMP_temperature;BMP_pressure;BME280_temperature;BME280_humidity;BME280_pressure;Samples;Min_cycle;Max_cycle;Signal;HPM_P1;HPM_P2
2022/01/24 00:00:00;;;;;;;13.18;2.15;;;;;;;21.83;54.32;101116.81;7309762;19;154430;-41
2022/01/24 00:02:27;;;;;;;31.50;3.58;;;;;;;21.81;53.54;101102.16;7311375;19;130436;-40
2022/01/24 00:04:53;;;;;;;29.90;3.13;;;;;;;22.05;53.62;101121.41;7309152;19;130217;-40
2022/01/24 00:07:21;;;;;;;26.00;3.13;;;;;;;22.09;53.10;101111.56;7310185;19;128917;-41
2022/01/24 00:09:47;;;;;;;13.85;2.22;;;;;;;22.19;52.78;101115.22;7310568;19;129241;-41
2022/01/24 00:12:26;;;;;;;22.63;2.55;;;;;;;22.34;52.35;101106.31;7310577;19;130348;-41
2022/01/24 00:15:05;;;;;;;28.67;3.28;;;;;;;22.62;52.01;101121.78;7309131;19;129566;-42
2022/01/24 00:17:34;;;;;;;21.90;2.55;;;;;;;22.89;50.55;101119.81;7310285;19;128901;-40
2022/01/24 00:28:03;;;;;;;20.45;2.15;;;;;;;23.36;49.87;101117.19;7307636;19;129068;-37
2022/01/24 00:30:29;;;;;;;14.02;1.90;;;;;;;23.21;50.06;101121.75;7316099;19;154343;-41
2022/01/24 00:32:54;;;;;;;46.13;4.07;;;;;;;23.22;50.45;101117.34;7315839;19;131739;-40
2022/01/24 00:35:19;;;;;;;33.03;3.67;;;;;;;23.09;50.33;101119.19;7312831;19;158400;-41
2022/01/24 00:37:44;;;;;;;27.00;3.03;;;;;;;22.86;50.66;101104.28;7315499;19;154674;-40
2022/01/24 00:40:10;;;;;;;16.45;2.28;;;;;;;22.81;51.52;101116.88;7314616;19;154752;-38
2022/01/24 00:42:54;;;;;;;18.47;2.13;;;;;;;22.75;51.25;101112.09;7316787;19;130177;-39
2022/01/24 00:53:19;;;;;;;31.08;3.22;;;;;;;22.54;52.56;101111.84;7315187;19;129685;-36
2022/01/24 00:55:46;;;;;;;25.75;2.72;;;;;;;22.51;52.79;101114.63;7315454;19;130561;-41
2022/01/24 00:58:12;;;;;;;26.73;2.67;;;;;;;22.51;52.23;101119.06;7313213;19;129309;-39
2022/01/24 01:00:37;;;;;;;24.35;2.25;;;;;;;22.48;52.95;101114.00;7317081;19;129289;-41
2022/01/24 01:03:03;;;;;;;27.10;3.00;;;;;;;22.46;52.20;101121.16;7314036;19;154067;-39
2022/01/24 01:18:07;;;;;;;23.40;2.35;;;;;;;22.35;52.82;101118.44;7316843;19;129421;-39
2022/01/24 01:19:12;;;;;;;34.58;3.33;;;;;;;22.08;53.25;101115.16;7316397;19;128947;-40
2022/01/24 01:21:37;;;;;;;33.85;2.97;;;;;;;22.05;53.43;101120.59;7313915;19;154003;-40
2022/01/24 01:24:03;;;;;;;17.73;2.03;;;;;;;22.03;54.07;101119.88;7314418;19;158294;-39
2022/01/24 01:26:47;;;;;;;15.93;1.80;;;;;;;22.11;53.51;101126.25;7314154;19;130583;-40
2022/01/24 01:29:18;;;;;;;22.10;2.45;;;;;;;22.14;53.47;101114.72;7314128;19;128956;-41
2022/01/24 01:34:51;;;;;;;21.25;2.22;;;;;;;22.18;53.43;101111.75;7314899;19;129074;-41
2022/01/24 01:37:40;;;;;;;23.95;2.45;;;;;;;22.44;52.23;101089.00;7314521;19;130343;-41
2022/01/24 01:40:30;;;;;;;24.90;2.47;;;;;;;22.76;51.62;101111.13;7313365;19;129082;-39
2022/01/24 01:56:00;;;;;;;18.45;1.77;;;;;;;23.17;50.40;101122.09;7309490;19;158581;-39
2022/01/24 01:58:25;;;;;;;7.82;1.30;;;;;;;23.11;50.67;101122.53;7311207;19;158753;-40
2022/01/24 02:00:59;;;;;;;38.13;3.70;;;;;;;22.97;51.28;101122.72;7314321;19;128879;-40
2022/01/24 02:03:26;;;;;;;21.08;2.15;;;;;;;22.89;51.23;101117.19;7313487;19;129018;-39
2022/01/24 02:05:52;;;;;;;23.42;2.58;;;;;;;22.71;51.42;101102.78;7311913;19;129354;-40
2022/01/24 02:08:18;;;;;;;24.80;2.58;;;;;;;22.75;51.72;101112.09;7312610;19;145010;-40
2022/01/24 02:10:44;;;;;;;16.30;2.20;;;;;;;22.61;52.43;101104.41;7315719;19;129098;-41
2022/01/24 02:13:11;;;;;;;20.30;2.10;;;;;;;22.55;52.75;101094.31;7314192;19;129447;-40
2022/01/24 02:18:35;;;;;;;23.08;2.38;;;;;;;22.54;52.73;101103.16;7314387;19;129338;-40
2022/01/24 02:21:27;;;;;;;19.58;2.00;;;;;;;22.51;53.04;101103.34;7314615;19;129481;-40
2022/01/24 02:23:57;;;;;;;40.33;3.70;;;;;;;22.44;52.64;101096.84;7313281;19;129403;-40
2022/01/24 02:26:22;;;;;;;23.15;2.28;;;;;;;22.42;52.84;101111.84;7311512;19;130857;-41
2022/01/24 02:31:37;;;;;;;26.20;2.40;;;;;;;22.34;52.91;101106.31;7314728;19;129793;-40
2022/01/24 02:34:04;;;;;;;22.77;2.30;;;;;;;22.27;53.61;101098.03;7313409;19;129407;-40
2022/01/24 02:36:30;;;;;;;18.60;1.88;;;;;;;22.12;53.61;101085.16;7310884;19;131394;-41
2022/01/24 02:49:31;;;;;;;17.40;1.88;;;;;;;22.10;53.83;101079.22;7311841;19;130724;-40
2022/01/24 02:52:02;;;;;;;26.05;2.33;;;;;;;22.42;53.27;101093.50;7309122;19;129250;-40
2022/01/24 02:54:30;;;;;;;19.67;1.88;;;;;;;22.63;52.16;101086.75;7312238;19;129219;-39
2022/01/24 02:56:55;;;;;;;46.15;3.88;;;;;;;22.84;51.82;101085.22;7310768;19;130470;-40
2022/01/24 02:59:21;;;;;;;23.13;2.25;;;;;;;23.18;50.81;101084.41;7306962;19;158533;-40
2022/01/24 03:01:47;;;;;;;27.27;2.53;;;;;;;23.39;49.92;101082.81;7313236;19;129252;-40
2022/01/24 03:04:13;;;;;;;54.37;4.93;;;;;;;23.47;49.99;101085.72;7308332;19;128913;-39
2022/01/24 03:06:38;;;;;;;19.83;1.90;;;;;;;23.30;50.56;101080.91;7310205;19;129367;-38
2022/01/24 03:09:05;;;;;;;11.93;1.50;;;;;;;23.32;50.69;101080.78;7307907;19;158484;-41
2022/01/24 03:11:52;;;;;;;20.83;2.05;;;;;;;23.18;50.42;101084.41;7313781;19;129432;-38
2022/01/24 03:14:17;;;;;;;24.00;2.28;;;;;;;23.11;50.66;101088.44;7310818;19;131131;-41
2022/01/24 03:16:42;;;;;;;29.75;2.65;;;;;;;23.03;50.76;101080.28;7309770;19;130367;-41
2022/01/24 03:19:07;;;;;;;19.17;1.73;;;;;;;22.95;51.73;101077.41;7311203;19;158683;-41
2022/01/24 03:21:32;;;;;;;21.27;2.13;;;;;;;22.85;51.16;101076.38;7312164;19;129907;-39
2022/01/24 03:23:58;;;;;;;15.60;1.73;;;;;;;22.78;51.79;101064.66;7310127;19;154036;-40
2022/01/24 03:26:23;;;;;;;31.38;2.75;;;;;;;22.67;52.91;101073.34;7306855;19;158260;-40
2022/01/24 03:28:48;;;;;;;27.50;2.42;;;;;;;22.56;52.46;101070.63;7309931;19;158739;-41
2022/01/24 03:31:13;;;;;;;25.70;2.38;;;;;;;22.53;52.67;101073.47;7309847;19;154744;-41
2022/01/24 03:33:39;;;;;;;20.65;2.03;;;;;;;22.52;53.11;101078.78;7309033;19;154998;-40
2022/01/24 03:36:04;;;;;;;15.25;1.60;;;;;;;22.50;52.62;101075.44;7308684;19;158566;-40
2022/01/24 03:38:29;;;;;;;20.45;1.73;;;;;;;22.46;53.38;101079.25;7312378;19;130010;-40
2022/01/24 03:40:55;;;;;;;33.13;3.27;;;;;;;22.43;53.16;101079.47;7310086;19;154435;-40
2022/01/24 03:43:20;;;;;;;24.95;2.33;;;;;;;22.37;53.38;101080.72;7311392;19;129371;-40
2022/01/24 03:45:48;;;;;;;33.63;3.05;;;;;;;22.34;53.26;101087.97;7307680;19;158627;-39
2022/01/24 03:48:37;;;;;;;21.30;2.20;;;;;;;22.24;53.63;101084.31;7311232;19;130509;-40
2022/01/24 03:51:02;;;;;;;23.08;2.20;;;;;;;22.13;53.53;101076.38;7312136;19;129141;-40
2022/01/24 03:53:27;;;;;;;13.07;1.45;;;;;;;22.19;53.87;101082.03;7308867;19;155037;-39
2022/01/24 03:55:53;;;;;;;15.73;1.63;;;;;;;22.17;53.98;101088.28;7307416;19;157212;-40
2022/01/24 03:58:18;;;;;;;23.92;2.33;;;;;;;22.33;53.81;101094.16;7309208;19;158850;-41
2022/01/24 04:00:43;;;;;;;24.90;2.33;;;;;;;22.96;51.33;101068.56;7309426;19;154996;-40
2022/01/24 04:03:08;;;;;;;22.75;2.08;;;;;;;23.59;49.69;101084.78;7310650;19;151176;-40
2022/01/24 04:05:34;;;;;;;19.80;1.88;;;;;;;24.32;48.24;101088.69;7315704;19;148701;-40
2022/01/24 04:07:59;;;;;;;15.05;1.70;;;;;;;24.66;46.80;101070.22;7315304;19;158710;-41
2022/01/24 04:10:24;;;;;;;17.65;1.45;;;;;;;25.10;45.73;101083.25;7316163;19;154329;-39
2022/01/24 04:12:51;;;;;;;38.50;3.60;;;;;;;25.41;45.20;101074.50;7316423;19;153590;-40
2022/01/24 04:15:34;;;;;;;37.08;3.63;;;;;;;25.56;44.99;101075.84;7316056;19;130057;-40
2022/01/24 04:18:25;;;;;;;2.88;0.50;;;;;;;25.77;43.93;101074.03;7318343;19;130417;-40
2022/01/24 04:23:38;;;;;;;23.25;2.15;;;;;;;25.95;43.53;101069.81;7317701;19;130456;-39
2022/01/24 04:26:03;;;;;;;8.82;1.17;;;;;;;26.00;43.18;101070.25;7314317;19;130359;-40
2022/01/24 04:28:28;;;;;;;22.48;1.90;;;;;;;26.01;43.27;101077.25;7315461;19;159215;-40
2022/01/24 04:30:53;;;;;;;30.13;2.70;;;;;;;25.94;43.96;101070.78;7316636;19;154343;-41
2022/01/24 04:33:19;;;;;;;10.10;1.23;;;;;;;26.04;43.51;101071.69;7316597;19;154231;-39
2022/01/24 04:35:44;;;;;;;27.58;2.42;;;;;;;25.85;43.81;101057.56;7313465;19;148789;-40
2022/01/24 04:38:09;;;;;;;21.73;1.92;;;;;;;26.05;43.61;101073.34;7315946;19;158437;-40
2022/01/24 04:40:34;;;;;;;20.27;2.00;;;;;;;25.95;43.60;101077.72;7316507;19;154407;-40
2022/01/24 04:43:25;;;;;;;17.73;1.73;;;;;;;25.98;44.05;101080.06;7317628;19;129520;-39
2022/01/24 04:46:42;;;;;;;26.38;2.38;;;;;;;25.92;43.64;101093.78;7313806;19;129986;-39
2022/01/24 04:51:35;;;;;;;29.88;3.00;;;;;;;25.74;44.05;101084.81;7316685;19;130121;-39
2022/01/24 04:56:33;;;;;;;27.55;2.25;;;;;;;25.40;45.13;101088.66;7312888;19;129502;-40
2022/01/24 04:58:58;;;;;;;19.48;1.70;;;;;;;25.25;45.63;101089.88;7315776;19;130122;-41
2022/01/24 05:01:24;;;;;;;25.37;2.23;;;;;;;25.03;46.13;101092.59;7314664;19;155546;-39
2022/01/24 05:03:49;;;;;;;24.90;2.40;;;;;;;24.85;46.98;101088.84;7316109;19;129137;-40
2022/01/24 05:06:14;;;;;;;34.35;3.17;;;;;;;24.68;46.90;101091.97;7311443;19;159299;-40
2022/01/24 05:08:39;;;;;;;21.97;2.07;;;;;;;24.48;47.54;101091.75;7313733;19;159144;-40
2022/01/24 05:11:09;;;;;;;20.07;1.90;;;;;;;24.32;48.38;101091.31;7316664;19;128993;-41
2022/01/24 05:23:27;;;;;;;25.67;2.33;;;;;;;23.65;49.43;101094.81;7314210;19;129046;-39
2022/01/24 05:24:39;;;;;;;51.58;4.20;;;;;;;23.53;49.94;101093.13;7313428;19;129766;-39
2022/01/24 05:27:05;;;;;;;28.30;2.78;;;;;;;23.37;50.67;101095.22;7313171;19;130241;-40
2022/01/24 05:29:31;;;;;;;19.40;1.73;;;;;;;23.27;50.92;101096.84;7313693;19;129898;-39
2022/01/24 05:31:56;;;;;;;30.83;2.50;;;;;;;23.19;50.92;101096.56;7313219;19;153370;-40
2022/01/24 05:34:23;;;;;;;24.88;2.50;;;;;;;23.07;51.65;101102.75;7313380;19;129355;-40
2022/01/24 05:36:48;;;;;;;26.92;2.53;;;;;;;23.02;51.82;101100.44;7315134;19;130068;-40
2022/01/24 05:39:14;;;;;;;28.80;2.63;;;;;;;22.95;51.79;101106.25;7314148;19;158702;-40
2022/01/24 05:41:39;;;;;;;34.27;3.00;;;;;;;22.88;52.19;101107.63;7313870;19;154552;-39
2022/01/24 05:44:06;;;;;;;23.35;1.92;;;;;;;22.88;52.44;101107.63;7314906;19;129116;-41
2022/01/24 05:46:31;;;;;;;;;;;;;;;22.83;52.67;101117.63;7313869;19;130667;-40
2022/01/24 05:48:57;;;;;;;18.10;1.75;;;;;;;22.77;52.89;101115.44;7313594;19;129239;-40
2022/01/24 05:51:24;;;;;;;31.85;2.95;;;;;;;22.76;52.96;101116.38;7311491;19;154664;-40
2022/01/24 05:53:49;;;;;;;28.95;2.63;;;;;;;22.74;53.23;101120.91;7313489;19;128876;-41
2022/01/24 05:56:15;;;;;;;32.60;3.05;;;;;;;22.71;52.50;101118.53;7312101;19;130081;-41
2022/01/24 05:58:41;;;;;;;29.02;2.53;;;;;;;22.67;52.93;101128.38;7310425;19;129624;-40
2022/01/24 06:01:06;;;;;;;24.15;2.05;;;;;;;22.57;53.10;101119.50;7312055;19;155020;-40
2022/01/24 06:03:31;;;;;;;18.73;1.65;;;;;;;22.56;52.58;101132.72;7312507;19;155259;-41
2022/01/24 06:05:56;;;;;;;3.72;0.88;;;;;;;22.52;52.93;101131.22;7311016;19;158267;-40
2022/01/24 06:08:22;;;;;;;24.95;2.40;;;;;;;22.40;52.75;101116.34;7312263;19;149673;-41
2022/01/24 06:10:48;;;;;;;38.92;3.33;;;;;;;22.44;53.47;101133.53;7312840;19;155127;-41
2022/01/24 06:13:14;;;;;;;28.52;2.60;;;;;;;22.44;53.33;101139.63;7313532;19;129032;-41
2022/01/24 06:15:40;;;;;;;21.43;2.00;;;;;;;22.46;54.05;101137.72;7313026;19;130305;-40
2022/01/24 06:18:05;;;;;;;35.50;2.97;;;;;;;22.45;53.32;101132.59;7312986;19;129963;-38
2022/01/24 06:20:30;;;;;;;39.05;3.33;;;;;;;22.36;53.41;101120.97;7313643;19;133836;-39
2022/01/24 06:22:56;;;;;;;23.08;2.05;;;;;;;22.47;53.13;101143.81;7311748;19;152622;-39
2022/01/24 06:25:24;;;;;;;22.98;2.33;;;;;;;22.48;53.25;101121.88;7310557;19;158650;-39
2022/01/24 06:27:49;;;;;;;25.65;2.28;;;;;;;22.69;52.08;101125.66;7312835;19;129657;-39
2022/01/24 06:30:15;;;;;;;18.88;1.77;;;;;;;22.92;51.83;101137.94;7311908;19;128847;-39
2022/01/24 06:32:40;;;;;;;30.42;2.80;;;;;;;23.16;51.00;101142.25;7313339;19;128993;-39
2022/01/24 06:35:08;;;;;;;18.77;2.08;;;;;;;23.34;50.78;101137.44;7310914;19;151986;-39
2022/01/24 06:37:34;;;;;;;19.17;1.63;;;;;;;23.66;49.92;101133.28;7313413;19;130919;-39
2022/01/24 06:39:59;;;;;;;30.17;2.65;;;;;;;23.97;48.83;101140.50;7312774;19;128923;-39
2022/01/24 06:42:24;;;;;;;27.67;2.40;;;;;;;24.11;48.48;101140.28;7313275;19;129026;-41
2022/01/24 06:44:51;;;;;;;20.80;2.27;;;;;;;24.38;47.42;101140.78;7311853;19;129210;-39
2022/01/24 06:47:16;;;;;;;;;;;;;;;24.50;46.96;101133.72;7313660;19;130718;-41
2022/01/24 06:49:42;;;;;;;41.30;3.63;;;;;;;24.61;47.17;101133.69;7309835;19;128987;-38
2022/01/24 06:52:07;;;;;;;38.13;3.10;;;;;;;24.58;46.89;101139.19;7308719;19;153980;-39
2022/01/24 06:54:34;;;;;;;28.27;2.63;;;;;;;24.53;47.24;101140.53;7310180;19;148991;-38
2022/01/24 06:57:00;;;;;;;19.20;1.58;;;;;;;24.43;47.60;101128.09;7309882;19;130365;-40
2022/01/24 06:59:25;;;;;;;21.40;1.80;;;;;;;24.46;47.29;101146.25;7311916;19;129368;-40
2022/01/24 07:01:50;;;;;;;42.43;3.67;;;;;;;24.54;47.55;101156.19;7309267;19;154262;-41
2022/01/24 07:04:15;;;;;;;25.33;2.33;;;;;;;24.51;47.15;101147.69;7309503;19;158994;-40
2022/01/24 07:06:41;;;;;;;52.17;4.10;;;;;;;24.48;47.36;101154.88;7305740;19;158681;-39
2022/01/24 07:09:06;;;;;;;36.45;3.20;;;;;;;24.39;47.89;101158.22;7306006;19;155708;-40
2022/01/24 07:11:31;;;;;;;22.83;1.88;;;;;;;24.21;48.23;101158.81;7312356;19;128774;-42
2022/01/24 07:13:57;;;;;;;22.25;1.90;;;;;;;24.08;48.94;101156.28;7307744;19;156930;-39
2022/01/24 07:16:24;;;;;;;27.17;2.33;;;;;;;23.90;48.80;101154.22;7309220;19;130348;-40
2022/01/24 07:18:58;;;;;;;29.45;2.58;;;;;;;23.86;49.60;101155.41;7311328;19;130384;-40
2022/01/24 07:21:24;;;;;;;23.42;2.33;;;;;;;23.80;49.20;101151.44;7312636;19;128934;-40
2022/01/24 07:23:49;;;;;;;53.00;4.10;;;;;;;23.80;49.16;101156.69;7308762;19;129653;-38
2022/01/24 07:26:15;;;;;;;34.65;3.10;;;;;;;23.77;49.74;101159.56;7308874;19;128959;-38
2022/01/24 07:28:40;;;;;;;36.03;2.90;;;;;;;23.71;49.53;101162.66;7309492;19;129067;-39
2022/01/24 07:31:05;;;;;;;25.08;2.22;;;;;;;23.71;49.54;101162.66;7310234;19;129398;-38
2022/01/24 07:33:31;;;;;;;18.45;1.73;;;;;;;23.66;49.75;101154.28;7308535;19;158926;-40
2022/01/24 07:35:56;;;;;;;40.83;3.35;;;;;;;23.80;49.84;101166.38;7307676;19;130601;-39
2022/01/24 07:38:22;;;;;;;62.57;5.47;;;;;;;23.82;49.91;101165.28;7309126;19;154804;-38
2022/01/24 07:40:49;;;;;;;46.15;3.80;;;;;;;23.86;49.91;101164.13;7315548;19;154775;-38
2022/01/24 07:43:15;;;;;;;19.00;1.80;;;;;;;23.90;49.79;101162.91;7317504;19;130564;-39
2022/01/24 07:45:43;;;;;;;26.73;2.22;;;;;;;23.91;49.54;101161.97;7314701;19;130318;-39
2022/01/24 07:48:09;;;;;;;8.75;0.98;;;;;;;23.87;50.82;101165.78;7316136;19;128774;-39
2022/01/24 07:50:37;;;;;;;26.33;2.13;;;;;;;24.02;49.75;101171.69;7315003;19;128941;-38
2022/01/24 07:53:04;;;;;;;32.20;2.92;;;;;;;24.01;50.13;101164.78;7315609;19;130514;-39
2022/01/24 07:55:30;;;;;;;;;;;;;;;23.94;50.36;101174.88;7311933;19;129844;-39
2022/01/24 07:57:55;;;;;;;32.03;3.00;;;;;;;24.04;50.20;101175.88;7316672;19;128895;-40
2022/01/24 08:00:20;;;;;;;42.65;3.80;;;;;;;23.94;50.06;101164.38;7313361;19;129536;-39
2022/01/24 08:02:46;;;;;;;29.65;2.75;;;;;;;24.07;50.27;101188.78;7311706;19;158677;-39
2022/01/24 08:05:11;;;;;;;61.78;5.55;;;;;;;24.02;50.85;101180.41;7312147;19;159404;-39
2022/01/24 08:07:38;;;;;;;26.27;2.40;;;;;;;23.85;51.06;101180.81;7314919;19;130000;-39
2022/01/24 08:10:05;;;;;;;28.05;2.17;;;;;;;23.86;50.95;101182.50;7315801;19;128982;-40
2022/01/24 08:12:31;;;;;;;29.05;2.70;;;;;;;23.78;51.37;101171.75;7314765;19;131705;-40
2022/01/24 08:14:59;;;;;;;30.20;2.70;;;;;;;23.76;51.21;101170.16;7316160;19;129487;-38
2022/01/24 08:17:24;;;;;;;20.90;2.03;;;;;;;23.64;51.94;101171.09;7314251;19;128870;-39
2022/01/24 08:19:50;;;;;;;37.40;3.35;;;;;;;23.65;52.12;101170.97;7316369;19;129085;-39
2022/01/24 08:22:16;;;;;;;45.20;3.78;;;;;;;23.62;52.25;101168.56;7314796;19;130201;-40
2022/01/24 08:24:41;;;;;;;29.08;2.75;;;;;;;23.62;52.13;101175.63;7316159;19;130923;-38
2022/01/24 08:27:06;;;;;;;19.23;1.77;;;;;;;23.51;52.67;101176.41;7314160;19;155045;-39
2022/01/24 08:29:32;;;;;;;25.90;3.10;;;;;;;23.18;50.75;101173.63;7314360;19;129576;-39
2022/01/24 08:31:57;;;;;;;21.27;2.88;;;;;;;23.06;49.41;101170.09;7313949;19;159010;-38
2022/01/24 08:34:22;;;;;;;34.55;3.85;;;;;;;22.97;47.17;101175.19;7312672;19;159222;-39
2022/01/24 08:36:48;;;;;;;43.63;4.55;;;;;;;22.84;47.72;101183.06;7311133;19;155267;-39
2022/01/24 08:39:13;;;;;;;34.90;4.07;;;;;;;22.79;48.38;101193.03;7313541;19;154757;-39
2022/01/24 08:41:48;;;;;;;28.83;3.17;;;;;;;22.73;48.12;101190.00;7315002;19;130766;-38
2022/01/24 08:44:32;;;;;;;22.77;2.67;;;;;;;22.76;49.36;101192.41;7315905;19;131083;-36
2022/01/24 08:46:57;;;;;;;41.97;4.10;;;;;;;22.70;49.46;101182.38;7313535;19;129241;-39
2022/01/24 08:49:23;;;;;;;24.60;3.03;;;;;;;22.75;49.52;101185.50;7314153;19;128794;-40
2022/01/24 08:51:48;;;;;;;27.03;3.20;;;;;;;22.89;48.99;101193.25;7314413;19;130880;-40
2022/01/24 08:54:14;;;;;;;14.57;2.60;;;;;;;22.77;48.93;101189.72;7314621;19;130101;-39
2022/01/24 08:56:39;;;;;;;45.28;4.47;;;;;;;22.75;48.64;101175.03;7312603;19;129170;-40
2022/01/24 08:59:05;;;;;;;25.50;3.03;;;;;;;22.76;49.08;101187.16;7313207;19;150219;-37
2022/01/24 09:01:31;;;;;;;23.37;2.73;;;;;;;22.72;49.56;101197.06;7315426;19;130296;-39
2022/01/24 09:03:56;;;;;;;43.35;5.03;;;;;;;23.02;49.49;101188.81;7312801;19;129443;-38
2022/01/24 09:06:22;;;;;;;31.92;3.85;;;;;;;22.83;49.37;101193.66;7310955;19;155367;-38
2022/01/24 09:08:55;;;;;;;28.48;3.75;;;;;;;22.73;48.17;101188.25;7312676;19;129454;-40
2022/01/24 09:11:28;;;;;;;27.67;3.28;;;;;;;22.67;48.64;101180.81;7315537;19;130439;-38
2022/01/24 09:13:54;;;;;;;36.97;4.03;;;;;;;22.70;48.60;101177.13;7313669;19;130912;-38
2022/01/24 09:16:19;;;;;;;49.38;4.70;;;;;;;22.70;47.66;101188.47;7310876;19;129451;-38
2022/01/24 09:18:44;;;;;;;33.30;4.32;;;;;;;22.63;46.99;101192.44;7315269;19;128863;-40
2022/01/24 09:21:09;;;;;;;34.50;4.15;;;;;;;22.60;47.30;101186.59;7312752;19;158579;-40
2022/01/24 09:23:35;;;;;;;34.00;4.07;;;;;;;22.69;47.54;101183.34;7311070;19;158569;-38
2022/01/24 09:26:00;;;;;;;40.30;4.15;;;;;;;22.76;47.62;101202.91;7310929;19;128988;-39
2022/01/24 09:28:25;;;;;;;44.53;4.88;;;;;;;22.81;47.10;101183.28;7313123;19;155254;-38
2022/01/24 09:30:51;;;;;;;40.03;4.83;;;;;;;23.13;46.63;101194.09;7309552;19;158207;-39
2022/01/24 09:33:17;;;;;;;29.70;3.63;;;;;;;23.33;46.79;101198.78;7312918;19;130866;-38
2022/01/24 09:35:43;;;;;;;66.33;6.17;;;;;;;23.53;45.74;101194.69;7310253;19;129151;-39
2022/01/24 09:38:09;;;;;;;42.03;3.95;;;;;;;23.68;45.65;101183.03;7314142;19;129529;-38
2022/01/24 09:40:35;;;;;;;22.53;3.13;;;;;;;23.81;45.10;101194.31;7314399;19;129645;-39
2022/01/24 09:43:00;;;;;;;25.35;3.13;;;;;;;24.03;44.66;101192.59;7313880;19;130574;-39
2022/01/24 09:45:26;;;;;;;38.90;4.05;;;;;;;24.06;45.04;101195.00;7311671;19;129431;-38
2022/01/24 09:47:53;;;;;;;26.05;3.17;;;;;;;24.20;44.67;101196.56;7315075;19;129765;-39
2022/01/24 09:50:20;;;;;;;25.17;3.08;;;;;;;24.33;44.18;101197.28;7312710;19;130514;-38
2022/01/24 09:52:46;;;;;;;31.15;3.47;;;;;;;24.42;43.94;101191.31;7314185;19;130735;-38
2022/01/24 09:55:13;;;;;;;49.85;5.32;;;;;;;24.53;43.99;101190.50;7313004;19;128978;-39
2022/01/24 09:57:41;;;;;;;27.85;3.22;;;;;;;24.56;43.14;101190.25;7314817;19;129099;-39
2022/01/24 10:00:10;;;;;;;33.00;3.83;;;;;;;24.60;43.68;101192.50;7314134;19;130492;-39
2022/01/24 10:02:36;;;;;;;25.20;2.95;;;;;;;24.58;43.57;101191.78;7311246;19;130891;-39
2022/01/24 10:05:25;;;;;;;24.85;2.92;;;;;;;24.54;43.65;101189.53;7312287;19;129302;-39
2022/01/24 10:07:55;;;;;;;30.00;3.60;;;;;;;24.38;43.88;101185.47;7314051;19;128845;-37
2022/01/24 10:10:39;;;;;;;31.25;3.60;;;;;;;24.18;43.83;101188.78;7312255;19;130631;-39
2022/01/24 10:19:20;;;;;;;40.17;4.70;;;;;;;23.73;45.87;101173.88;7313694;19;129333;-39
2022/01/24 10:22:00;;;;;;;49.90;5.43;;;;;;;23.70;45.25;101176.72;7311229;19;129490;-39
2022/01/24 10:24:45;;;;;;;27.60;2.90;;;;;;;23.51;45.66;101157.19;7312908;19;131358;-40
2022/01/24 10:27:25;;;;;;;30.77;3.45;;;;;;;23.57;46.06;101170.69;7312089;19;128859;-39
2022/01/24 10:29:59;;;;;;;33.60;3.83;;;;;;;23.47;46.43;101164.47;7310030;19;129428;-38
2022/01/24 10:32:33;;;;;;;31.23;3.35;;;;;;;23.43;46.44;101163.03;7313155;19;129643;-38
2022/01/24 10:35:43;;;;;;;34.38;3.60;;;;;;;23.31;46.89;101158.69;7310979;19;131874;-38
2022/01/24 10:38:15;;;;;;;23.83;2.97;;;;;;;23.23;46.63;101150.50;7312427;19;129426;-38
2022/01/24 10:41:18;;;;;;;25.27;3.10;;;;;;;23.23;46.20;101145.25;7313272;19;128946;-40
2022/01/24 10:43:33;;;;;;;28.65;2.97;;;;;;;23.15;46.48;101147.59;7311147;19;130752;-40
2022/01/24 10:45:58;;;;;;;44.08;4.30;;;;;;;23.12;47.22;101158.34;7308735;19;130434;-39
2022/01/24 10:48:31;;;;;;;19.97;2.73;;;;;;;23.14;47.06;101162.50;7312751;19;129235;-38
2022/01/24 10:51:23;;;;;;;24.25;2.78;;;;;;;23.24;46.25;101155.63;7310102;19;130086;-40
2022/01/24 10:53:53;;;;;;;28.92;3.40;;;;;;;23.30;46.55;101154.41;7311688;19;129800;-38
2022/01/24 10:56:35;;;;;;;23.10;3.00;;;;;;;23.48;46.27;101155.66;7308979;19;130925;-38
2022/01/24 10:59:13;;;;;;;20.45;2.47;;;;;;;23.63;45.62;101159.75;7312984;19;129469;-40
2022/01/24 11:01:43;;;;;;;21.88;2.67;;;;;;;23.81;45.33;101158.38;7312012;19;129181;-38
2022/01/24 11:04:13;;;;;;;29.92;3.13;;;;;;;23.94;44.52;101153.88;7311559;19;130426;-41
2022/01/24 11:06:41;;;;;;;37.45;3.85;;;;;;;24.07;44.31;101153.78;7308431;19;131467;-40
2022/01/24 11:09:19;;;;;;;20.95;2.55;;;;;;;24.21;44.43;101154.38;7312514;19;129308;-39
2022/01/24 11:11:45;;;;;;;28.98;3.03;;;;;;;24.23;43.86;101149.84;7311967;19;128932;-40
2022/01/24 11:14:15;;;;;;;33.03;3.37;;;;;;;24.45;43.85;101155.13;7308591;19;130237;-41
2022/01/24 11:16:41;;;;;;;28.13;2.80;;;;;;;24.49;43.86;101148.66;7308529;19;131005;-41
2022/01/24 11:19:14;;;;;;;32.70;3.47;;;;;;;24.63;43.20;101150.19;7311742;19;129164;-40
2022/01/24 11:21:39;;;;;;;22.45;2.58;;;;;;;24.71;42.94;101149.63;7311455;19;128811;-39
2022/01/24 11:24:07;;;;;;;14.98;2.13;;;;;;;24.70;43.73;101142.69;7311694;19;130269;-41
2022/01/24 11:26:36;;;;;;;20.23;2.38;;;;;;;24.67;43.58;101143.75;7308737;19;131284;-40
2022/01/24 11:29:02;;;;;;;21.50;2.58;;;;;;;24.70;43.72;101138.25;7311300;19;128875;-39
2022/01/24 11:31:34;;;;;;;30.33;3.17;;;;;;;24.54;43.73;101136.94;7305756;19;129142;-39
2022/01/24 11:34:05;;;;;;;28.00;3.15;;;;;;;24.35;43.96;101113.88;7311934;19;130590;-40
2022/01/24 11:36:42;;;;;;;28.50;2.95;;;;;;;24.26;44.53;101122.50;7306170;19;130780;-40
2022/01/24 11:39:08;;;;;;;9.67;1.90;;;;;;;24.15;44.86;101120.72;7311884;19;129466;-41
2022/01/24 11:41:38;;;;;;;15.63;2.60;;;;;;;24.06;45.03;101129.31;7308945;19;129284;-40
2022/01/24 11:44:16;;;;;;;30.27;3.38;;;;;;;23.93;45.38;101120.66;7312063;19;129204;-39
2022/01/24 11:49:12;;;;;;;35.15;4.07;;;;;;;23.87;45.88;101118.50;7309982;19;154942;-40
2022/01/24 11:51:39;;;;;;;32.38;4.10;;;;;;;23.94;45.47;101111.84;7309780;19;129090;-39
2022/01/24 11:54:31;;;;;;;25.00;3.67;;;;;;;24.00;46.16;101116.63;7309317;19;130040;-39
2022/01/24 11:57:18;;;;;;;29.00;3.72;;;;;;;24.22;45.35;101115.81;7309814;19;130315;-42
2022/01/24 11:59:44;;;;;;;35.53;4.40;;;;;;;24.44;44.87;101113.19;7310109;19;128854;-40
2022/01/24 12:02:12;;;;;;;28.90;3.97;;;;;;;24.55;43.80;101112.31;7310612;19;129773;-40
2022/01/24 12:04:58;;;;;;;25.70;3.92;;;;;;;24.70;43.41;101106.69;7309566;19;131025;-38
2022/01/24 12:07:48;;;;;;;31.20;3.85;;;;;;;24.63;44.22;101105.47;7309435;19;129590;-40
2022/01/24 12:10:25;;;;;;;35.95;4.05;;;;;;;24.86;43.51;101111.56;7308424;19;128935;-40
2022/01/24 12:12:53;;;;;;;38.17;4.40;;;;;;;24.94;43.06;101101.25;7309543;19;129882;-40
2022/01/24 12:15:37;;;;;;;60.00;6.63;;;;;;;25.03;42.29;101105.75;7306193;19;159087;-39
2022/01/24 12:18:04;;;;;;;22.77;2.92;;;;;;;24.93;42.67;101107.47;7308632;19;154825;-40
2022/01/24 12:20:29;;;;;;;25.20;3.65;;;;;;;24.82;43.42;101100.47;7310159;19;128942;-40
2022/01/24 12:22:54;;;;;;;34.13;4.17;;;;;;;24.69;43.68;101104.19;7306288;19;153199;-41
2022/01/24 12:25:57;;;;;;;40.28;4.40;;;;;;;24.55;43.24;101101.78;7310750;19;157460;-40
2022/01/24 12:28:27;;;;;;;37.33;4.47;;;;;;;24.37;43.40;101109.34;7315136;19;130438;-40
2022/01/24 12:31:01;;;;;;;35.47;3.53;;;;;;;24.17;43.85;101108.28;7316518;19;130014;-39
2022/01/24 12:33:31;;;;;;;27.40;3.33;;;;;;;23.90;44.38;101097.25;7316587;19;129710;-39
2022/01/24 12:35:56;;;;;;;30.08;3.47;;;;;;;23.90;44.56;101105.13;7314471;19;131265;-39
2022/01/24 12:38:22;;;;;;;43.30;4.43;;;;;;;23.78;45.56;101106.09;7314847;19;129798;-39
2022/01/24 12:40:48;;;;;;;33.72;4.13;;;;;;;23.77;45.67;101103.56;7314934;19;155184;-39